createdAt,value
2023-05-05T00:00:03.250Z,48.74
2023-05-05T00:02:30.724Z,48.69
2023-05-05T00:04:34.812Z,48.87
2023-05-05T00:06:43.298Z,48.76
2023-05-05T00:08:47.249Z,48.92
2023-05-05T00:10:58.214Z,49.24
2023-05-05T00:13:05.971Z,49.22
2023-05-05T00:15:15.706Z,49.29
2023-05-05T00:17:24.431Z,49.20
2023-05-05T00:19:30.012Z,49.19
2023-05-05T00:21:37.076Z,49.27
2023-05-05T00:23:42.218Z,49.45
2023-05-05T00:25:45.395Z,49.74
2023-05-05T00:27:52.377Z,49.75
2023-05-05T00:29:55.868Z,49.57
2023-05-05T00:31:59.499Z,50.06
2023-05-05T00:34:06.289Z,49.90
2023-05-05T00:36:11.093Z,49.94
2023-05-05T00:38:16.000Z,50.35
2023-05-05T00:40:20.324Z,50.30
2023-05-05T00:42:23.942Z,50.32
2023-05-05T00:44:41.569Z,50.39
2023-05-05T00:46:47.299Z,50.26
2023-05-05T00:48:51.760Z,50.45
2023-05-05T00:50:58.348Z,50.53
2023-05-05T00:53:06.746Z,50.54
2023-05-05T00:55:13.660Z,50.78
2023-05-05T00:57:19.287Z,50.79
2023-05-05T00:59:23.407Z,50.90
2023-05-05T01:01:26.409Z,51.21
2023-05-05T01:03:32.897Z,51.37
2023-05-05T01:06:10.376Z,51.57
2023-05-05T01:08:54.884Z,51.81
2023-05-05T01:11:11.534Z,52.10
2023-05-05T01:13:24.149Z,52.07
2023-05-05T01:15:46.380Z,52.37
2023-05-05T01:18:26.011Z,52.46
2023-05-05T01:20:53.433Z,52.46
2023-05-05T01:23:05.902Z,52.49
2023-05-05T01:25:28.038Z,52.44
2023-05-05T01:27:56.092Z,52.14
2023-05-05T01:30:20.286Z,52.15
2023-05-05T01:32:32.068Z,52.20
2023-05-05T01:35:01.175Z,52.25
2023-05-05T01:37:19.814Z,52.29
2023-05-05T01:39:28.336Z,52.57
2023-05-05T01:41:46.506Z,52.39
2023-05-05T01:43:53.153Z,52.48
2023-05-05T01:45:57.712Z,52.74
2023-05-05T01:48:02.776Z,52.81
2023-05-05T01:50:08.664Z,52.95
2023-05-05T01:52:14.002Z,52.95
2023-05-05T01:54:19.285Z,53.08
2023-05-05T01:56:24.102Z,53.26
2023-05-05T01:58:32.063Z,53.46
2023-05-05T02:00:50.238Z,53.48
2023-05-05T02:02:57.502Z,53.62
2023-05-05T02:05:06.460Z,53.58
2023-05-05T02:07:12.647Z,53.74
2023-05-05T02:09:17.803Z,53.65
2023-05-05T02:11:22.512Z,53.58
2023-05-05T02:13:33.079Z,53.76
2023-05-05T02:15:39.816Z,53.97
2023-05-05T02:17:53.859Z,54.07
2023-05-05T02:20:01.080Z,54.15
2023-05-05T02:22:04.405Z,54.18
2023-05-05T02:24:09.714Z,54.18
2023-05-05T02:26:17.730Z,54.07
2023-05-05T02:28:28.110Z,54.08
2023-05-05T02:30:38.059Z,54.21
2023-05-05T02:32:51.324Z,54.24
2023-05-05T02:34:57.485Z,54.22
2023-05-05T02:37:05.415Z,54.27
2023-05-05T02:39:23.227Z,54.40
2023-05-05T02:41:29.698Z,54.45
2023-05-05T02:43:35.191Z,54.58
2023-05-05T02:45:41.587Z,54.60
2023-05-05T02:47:48.724Z,54.67
2023-05-05T02:49:52.410Z,54.80
2023-05-05T02:52:03.067Z,54.68
2023-05-05T02:54:11.654Z,54.81
2023-05-05T02:56:38.540Z,54.78
2023-05-05T02:58:51.398Z,54.98
2023-05-05T03:01:28.052Z,55.19
2023-05-05T03:03:44.823Z,54.99
2023-05-05T03:06:03.029Z,55.13
2023-05-05T03:08:15.980Z,55.03
2023-05-05T03:10:24.334Z,54.97
2023-05-05T03:12:37.696Z,54.98
2023-05-05T03:17:21.192Z,55.07
2023-05-05T03:19:30.579Z,55.20
2023-05-05T03:21:37.981Z,55.20
2023-05-05T03:23:41.870Z,55.19
2023-05-05T03:25:50.753Z,55.36
2023-05-05T03:28:07.920Z,55.40
2023-05-05T03:30:11.985Z,55.51
2023-05-05T03:32:24.458Z,55.75
2023-05-05T03:34:30.769Z,55.65
2023-05-05T03:36:38.464Z,55.74
2023-05-05T03:38:44.666Z,55.93
2023-05-05T03:40:52.399Z,56.06
2023-05-05T03:43:00.979Z,56.01
2023-05-05T03:45:05.240Z,55.98
2023-05-05T03:47:13.134Z,55.87
2023-05-05T03:49:16.329Z,56.12
2023-05-05T03:51:22.071Z,56.18
2023-05-05T03:53:27.539Z,56.28
2023-05-05T03:55:33.134Z,56.32
2023-05-05T03:57:39.089Z,56.32
2023-05-05T03:59:43.767Z,56.41
2023-05-05T04:01:58.517Z,56.35
2023-05-05T04:04:04.895Z,56.43
2023-05-05T04:06:08.147Z,56.32
2023-05-05T04:08:11.709Z,56.39
2023-05-05T04:10:16.261Z,56.43
2023-05-05T04:12:19.110Z,56.39
2023-05-05T04:14:25.327Z,56.41
2023-05-05T04:16:33.582Z,56.45
2023-05-05T04:18:37.005Z,56.35
2023-05-05T04:20:41.707Z,56.48
2023-05-05T04:22:46.187Z,56.62
2023-05-05T04:24:52.255Z,56.78
2023-05-05T04:26:59.166Z,56.88
2023-05-05T04:29:07.810Z,56.73
2023-05-05T04:31:18.463Z,56.73
2023-05-05T04:33:23.536Z,56.69
2023-05-05T04:35:30.216Z,56.91
2023-05-05T04:37:34.951Z,56.93
2023-05-05T04:39:38.105Z,56.92
2023-05-05T04:41:41.132Z,56.52
2023-05-05T04:43:44.969Z,56.57
2023-05-05T04:45:55.919Z,56.52
2023-05-05T04:48:05.225Z,56.44
2023-05-05T04:50:11.567Z,56.36
2023-05-05T04:52:14.517Z,56.49
2023-05-05T04:54:19.111Z,56.53
2023-05-05T04:56:26.597Z,56.31
2023-05-05T04:58:30.653Z,56.24
2023-05-05T05:00:37.475Z,56.23
2023-05-05T05:02:47.588Z,56.29
2023-05-05T05:04:51.797Z,56.19
2023-05-05T05:07:03.519Z,56.04
2023-05-05T05:09:08.772Z,56.24
2023-05-05T05:11:18.971Z,56.19
2023-05-05T05:13:23.615Z,56.07
2023-05-05T05:15:27.128Z,55.88
2023-05-05T05:17:30.646Z,56.05
2023-05-05T05:19:40.196Z,56.22
2023-05-05T05:21:49.110Z,56.15
2023-05-05T05:23:52.262Z,56.13
2023-05-05T05:25:56.506Z,56.22
2023-05-05T05:28:09.473Z,56.21
2023-05-05T05:30:19.234Z,56.44
2023-05-05T05:32:22.785Z,56.25
2023-05-05T05:34:27.336Z,56.25
2023-05-05T05:36:32.195Z,56.03
2023-05-05T05:38:39.615Z,56.03
2023-05-05T05:40:44.546Z,55.93
2023-05-05T05:42:51.683Z,55.96
2023-05-05T05:44:57.840Z,55.82
2023-05-05T05:47:00.722Z,55.74
2023-05-05T05:49:06.479Z,55.60
2023-05-05T05:51:10.177Z,55.54
2023-05-05T05:53:16.745Z,55.29
2023-05-05T05:55:25.389Z,55.30
2023-05-05T05:57:29.284Z,54.97
2023-05-05T05:59:40.821Z,54.97
2023-05-05T06:01:44.027Z,55.10
2023-05-05T06:03:48.120Z,54.92
2023-05-05T06:05:53.981Z,54.70
2023-05-05T06:07:58.448Z,54.60
2023-05-05T06:10:14.350Z,54.29
2023-05-05T06:12:18.721Z,54.42
2023-05-05T06:14:30.338Z,54.37
2023-05-05T06:16:41.435Z,54.29
2023-05-05T06:18:49.958Z,54.33
2023-05-05T06:20:54.523Z,54.12
2023-05-05T06:23:03.027Z,53.95
2023-05-05T06:25:08.145Z,53.80
2023-05-05T06:27:14.049Z,53.72
2023-05-05T06:29:18.395Z,53.54
2023-05-05T06:31:28.988Z,53.44
2023-05-05T06:33:34.682Z,53.41
2023-05-05T06:35:39.768Z,53.45
2023-05-05T06:37:43.554Z,53.18
2023-05-05T06:39:46.724Z,53.25
2023-05-05T06:41:52.062Z,53.13
2023-05-05T06:43:56.289Z,53.04
2023-05-05T06:46:00.101Z,52.89
2023-05-05T06:48:06.191Z,52.72
2023-05-05T06:50:12.477Z,52.48
2023-05-05T06:52:16.834Z,52.28
2023-05-05T06:54:21.687Z,51.39
2023-05-05T06:56:25.063Z,51.12
2023-05-05T06:58:28.523Z,50.82
2023-05-05T07:00:32.708Z,50.51
2023-05-05T07:02:39.010Z,50.67
2023-05-05T07:04:44.642Z,50.91
2023-05-05T07:06:48.214Z,51.10
2023-05-05T07:08:52.112Z,51.26
2023-05-05T07:10:55.704Z,51.23
2023-05-05T07:12:59.226Z,50.86
2023-05-05T07:15:15.545Z,50.48
2023-05-05T07:17:23.597Z,50.12
2023-05-05T07:19:29.342Z,50.12
2023-05-05T07:21:37.869Z,50.21
2023-05-05T07:23:44.464Z,50.10
2023-05-05T07:25:49.970Z,49.96
2023-05-05T07:27:59.001Z,49.98
2023-05-05T07:30:04.048Z,49.66
2023-05-05T07:32:14.107Z,49.15
2023-05-05T07:34:23.953Z,48.61
2023-05-05T07:36:31.936Z,48.36
2023-05-05T07:38:37.080Z,48.31
2023-05-05T07:40:42.596Z,48.20
2023-05-05T07:42:51.256Z,47.90
2023-05-05T07:45:07.662Z,48.25
2023-05-05T07:47:11.247Z,48.21
2023-05-05T07:49:20.033Z,47.90
2023-05-05T07:51:32.534Z,48.00
2023-05-05T07:53:37.503Z,47.64
2023-05-05T07:55:41.493Z,47.10
2023-05-05T07:57:48.041Z,46.96
2023-05-05T07:59:53.623Z,47.25
2023-05-05T08:02:06.978Z,47.51
2023-05-05T08:04:10.202Z,47.58
2023-05-05T08:06:16.094Z,47.81
2023-05-05T08:08:21.187Z,47.33
2023-05-05T08:10:31.699Z,47.34
2023-05-05T08:12:37.780Z,47.76
2023-05-05T08:14:46.766Z,47.53
2023-05-05T08:16:52.061Z,48.11
2023-05-05T08:18:55.484Z,48.15
2023-05-05T08:20:58.854Z,47.91
2023-05-05T08:23:03.661Z,48.01
2023-05-05T08:25:08.706Z,47.85
2023-05-05T08:27:11.575Z,47.59
2023-05-05T08:29:15.089Z,47.30
2023-05-05T08:31:20.423Z,47.04
2023-05-05T08:33:24.098Z,46.95
2023-05-05T08:35:30.400Z,46.99
2023-05-05T08:39:52.329Z,46.85
2023-05-05T08:42:06.972Z,46.99
2023-05-05T08:44:13.503Z,46.69
2023-05-05T08:46:18.005Z,46.54
2023-05-05T08:48:25.470Z,46.55
2023-05-05T08:50:33.314Z,46.18
2023-05-05T08:52:44.517Z,46.21
2023-05-05T08:55:03.299Z,45.90
2023-05-05T08:57:09.934Z,46.17
2023-05-05T08:59:14.842Z,46.31
2023-05-05T09:01:20.967Z,46.15
2023-05-05T09:03:27.080Z,46.16
2023-05-05T09:05:31.190Z,46.12
2023-05-05T09:07:39.751Z,45.96
2023-05-05T09:09:50.548Z,45.60
2023-05-05T09:11:55.018Z,45.77
2023-05-05T09:14:06.826Z,45.55
2023-05-05T09:16:13.709Z,45.74
2023-05-05T09:18:19.646Z,45.48
2023-05-05T09:20:22.493Z,45.19
2023-05-05T09:22:34.784Z,45.23
2023-05-05T09:24:38.156Z,45.29
2023-05-05T09:26:45.280Z,45.44
2023-05-05T09:28:54.402Z,45.57
2023-05-05T09:31:16.659Z,45.65
2023-05-05T09:33:31.138Z,45.08
2023-05-05T09:36:03.344Z,45.30
2023-05-05T09:38:14.254Z,45.65
2023-05-05T09:40:21.392Z,45.73
2023-05-05T09:42:24.286Z,45.73
2023-05-05T09:44:35.156Z,45.71
2023-05-05T09:46:51.143Z,45.65
2023-05-05T09:48:54.226Z,45.28
2023-05-05T09:50:59.029Z,44.85
2023-05-05T09:53:08.525Z,45.18
2023-05-05T09:55:18.508Z,45.22
2023-05-05T09:57:37.582Z,44.90
2023-05-05T09:59:55.217Z,44.92
2023-05-05T10:02:16.842Z,44.81
2023-05-05T10:04:31.068Z,44.81
2023-05-05T10:06:49.101Z,44.80
2023-05-05T10:09:05.724Z,44.76
2023-05-05T10:11:08.904Z,44.37
2023-05-05T10:13:19.024Z,44.56
2023-05-05T10:15:22.707Z,44.48
2023-05-05T10:17:31.126Z,44.55
2023-05-05T10:19:36.080Z,44.27
2023-05-05T10:21:42.201Z,44.14
2023-05-05T10:23:50.761Z,44.27
2023-05-05T10:25:59.463Z,44.18
2023-05-05T10:28:07.891Z,44.07
2023-05-05T10:30:22.927Z,44.30
2023-05-05T10:32:56.972Z,43.87
2023-05-05T10:35:03.143Z,43.68
2023-05-05T10:37:07.754Z,43.65
2023-05-05T10:39:16.322Z,43.80
2023-05-05T10:41:22.582Z,43.61
2023-05-05T10:43:25.938Z,43.83
2023-05-05T10:45:36.639Z,43.59
2023-05-05T10:47:40.708Z,43.59
2023-05-05T10:49:59.394Z,43.85
2023-05-05T10:52:28.438Z,43.71
2023-05-05T10:54:44.473Z,44.11
2023-05-05T10:56:51.645Z,43.89
2023-05-05T10:59:00.192Z,43.99
2023-05-05T11:01:05.830Z,44.37
2023-05-05T11:03:18.463Z,44.25
2023-05-05T11:05:31.519Z,43.98
2023-05-05T11:07:35.392Z,43.94
2023-05-05T11:10:06.657Z,43.80
2023-05-05T11:12:14.619Z,43.32
2023-05-05T11:14:24.324Z,43.22
2023-05-05T11:16:50.661Z,43.29
2023-05-05T11:18:55.121Z,43.65
2023-05-05T11:20:57.949Z,43.63
2023-05-05T11:23:17.769Z,43.06
2023-05-05T11:25:37.207Z,42.65
2023-05-05T11:28:13.531Z,42.65
2023-05-05T11:30:18.043Z,42.75
2023-05-05T11:32:21.187Z,42.94
2023-05-05T11:34:29.385Z,43.01
2023-05-05T11:36:45.390Z,42.85
2023-05-05T11:38:57.625Z,42.81
2023-05-05T11:41:25.366Z,42.75
2023-05-05T11:43:28.012Z,42.67
2023-05-05T11:45:31.110Z,43.11
2023-05-05T11:47:34.843Z,42.92
2023-05-05T11:49:40.625Z,42.75
2023-05-05T11:51:44.030Z,42.97
2023-05-05T11:53:48.181Z,42.78
2023-05-05T11:56:09.426Z,42.66
2023-05-05T11:58:28.957Z,42.22
2023-05-05T12:00:35.061Z,42.77
2023-05-05T12:02:38.011Z,42.93
2023-05-05T12:04:43.425Z,42.94
2023-05-05T12:06:51.555Z,42.99
2023-05-05T12:08:56.436Z,43.43
2023-05-05T12:11:03.763Z,43.61
2023-05-05T12:13:21.868Z,43.41
2023-05-05T12:15:30.344Z,43.30
2023-05-05T12:17:43.145Z,43.20
2023-05-05T12:20:15.154Z,43.26
2023-05-05T12:22:19.642Z,43.84
2023-05-05T12:24:23.416Z,43.87
2023-05-05T12:26:32.161Z,43.50
2023-05-05T12:28:49.749Z,43.49
2023-05-05T12:31:02.095Z,43.19
2023-05-05T12:33:08.336Z,43.15
2023-05-05T12:35:16.151Z,43.48
2023-05-05T12:37:33.285Z,43.95
2023-05-05T12:39:41.732Z,43.87
2023-05-05T12:41:48.364Z,44.15
2023-05-05T12:43:56.906Z,44.07
2023-05-05T12:46:08.980Z,44.24
2023-05-05T12:48:23.125Z,44.05
2023-05-05T12:50:34.128Z,43.82
2023-05-05T12:52:46.996Z,43.68
2023-05-05T12:55:01.530Z,43.30
2023-05-05T12:57:13.894Z,43.68
2023-05-05T12:59:23.491Z,43.75
2023-05-05T13:01:27.075Z,43.84
2023-05-05T13:03:31.435Z,43.90
2023-05-05T13:05:42.976Z,43.52
2023-05-05T13:07:54.581Z,42.93
2023-05-05T13:10:16.264Z,42.74
2023-05-05T13:12:22.192Z,42.76
2023-05-05T13:14:31.667Z,42.66
2023-05-05T13:16:36.032Z,42.43
2023-05-05T13:18:54.685Z,42.31
2023-05-05T13:21:01.497Z,41.93
2023-05-05T13:23:12.578Z,41.84
2023-05-05T13:25:15.949Z,41.47
2023-05-05T13:27:24.242Z,41.14
2023-05-05T13:29:41.683Z,41.49
2023-05-05T13:31:45.561Z,41.69
2023-05-05T13:33:49.381Z,41.32
2023-05-05T13:35:53.959Z,41.32
2023-05-05T13:37:58.145Z,41.15
2023-05-05T13:40:12.763Z,41.41
2023-05-05T13:42:50.487Z,41.10
2023-05-05T13:44:54.403Z,39.73
2023-05-05T13:46:57.710Z,39.42
2023-05-05T13:49:01.860Z,38.91
2023-05-05T13:51:09.096Z,38.74
2023-05-05T13:53:12.408Z,38.61
2023-05-05T13:55:16.185Z,38.41
2023-05-05T13:57:21.625Z,37.34
2023-05-05T13:59:28.451Z,37.09
2023-05-05T14:01:36.034Z,37.35
2023-05-05T14:03:41.840Z,37.08
2023-05-05T14:05:46.202Z,37.15
2023-05-05T14:07:57.861Z,37.17
2023-05-05T14:10:03.901Z,37.49
2023-05-05T14:12:07.002Z,37.84
2023-05-05T14:14:12.105Z,37.79
2023-05-05T14:16:16.249Z,38.02
2023-05-05T14:18:21.295Z,38.24
2023-05-05T14:20:28.812Z,38.86
2023-05-05T14:22:39.132Z,39.69
2023-05-05T14:24:45.217Z,40.56
2023-05-05T14:26:49.408Z,41.15
2023-05-05T14:29:12.244Z,41.39
2023-05-05T14:31:15.907Z,41.43
2023-05-05T14:33:24.023Z,41.75
2023-05-05T14:35:30.135Z,42.32
2023-05-05T14:37:36.660Z,42.86
2023-05-05T14:39:40.622Z,43.57
2023-05-05T14:41:52.929Z,44.71
2023-05-05T14:43:57.366Z,45.48
2023-05-05T14:46:02.766Z,45.84
2023-05-05T14:48:09.642Z,46.24
2023-05-05T14:50:14.406Z,46.36
2023-05-05T14:52:19.285Z,46.85
2023-05-05T14:54:29.604Z,46.96
2023-05-05T14:56:51.768Z,46.97
2023-05-05T14:58:59.240Z,47.24
2023-05-05T15:01:07.814Z,47.33
2023-05-05T15:03:13.110Z,47.56
2023-05-05T15:05:19.581Z,48.09
2023-05-05T15:07:28.695Z,48.89
2023-05-05T15:09:35.622Z,49.32
2023-05-05T15:11:47.583Z,49.51
2023-05-05T15:13:58.340Z,49.91
2023-05-05T15:16:01.700Z,50.50
2023-05-05T15:18:07.651Z,51.12
2023-05-05T15:20:13.563Z,51.50
2023-05-05T15:22:18.280Z,51.83
2023-05-05T15:24:21.947Z,51.99
2023-05-05T15:26:24.854Z,52.38
2023-05-05T15:28:28.931Z,52.44
2023-05-05T15:31:04.038Z,52.64
2023-05-05T15:33:08.662Z,52.77
2023-05-05T15:35:13.273Z,52.91
2023-05-05T15:37:18.417Z,53.42
2023-05-05T15:39:22.068Z,53.95
2023-05-05T15:41:29.338Z,54.54
2023-05-05T15:43:36.034Z,54.81
2023-05-05T15:45:42.593Z,55.33
2023-05-05T15:47:46.637Z,55.71
2023-05-05T15:49:52.958Z,56.15
2023-05-05T15:51:58.617Z,56.20
2023-05-05T15:54:03.170Z,56.46
2023-05-05T15:56:07.679Z,56.63
2023-05-05T15:58:10.525Z,56.83
2023-05-05T16:00:18.432Z,56.69
2023-05-05T16:02:22.447Z,56.74
2023-05-05T16:04:26.755Z,56.34
2023-05-05T16:06:34.473Z,56.35
2023-05-05T16:08:37.725Z,57.07
2023-05-05T16:10:43.188Z,57.39
2023-05-05T16:12:48.823Z,57.45
2023-05-05T16:14:53.443Z,57.59
2023-05-05T16:17:02.227Z,57.85
2023-05-05T16:19:07.147Z,57.95
2023-05-05T16:21:11.593Z,57.49
2023-05-05T16:23:22.075Z,57.56
2023-05-05T16:25:28.086Z,57.53
2023-05-05T16:27:32.125Z,58.20
2023-05-05T16:29:51.182Z,58.65
2023-05-05T16:31:55.601Z,58.36
2023-05-05T16:34:00.118Z,58.47
2023-05-05T16:36:03.355Z,58.83
2023-05-05T16:38:13.543Z,59.13
2023-05-05T16:40:17.521Z,59.13
2023-05-05T16:42:23.094Z,59.38
2023-05-05T16:44:27.038Z,59.79
2023-05-05T16:46:29.731Z,59.87
2023-05-05T16:48:37.866Z,59.71
2023-05-05T16:50:41.796Z,59.56
2023-05-05T16:52:48.521Z,59.25
2023-05-05T16:54:56.024Z,59.09
2023-05-05T16:56:58.928Z,58.90
2023-05-05T16:59:02.997Z,58.93
2023-05-05T17:01:07.175Z,59.15
2023-05-05T17:05:33.197Z,59.01
2023-05-05T17:07:49.778Z,58.81
2023-05-05T17:10:05.775Z,59.20
2023-05-05T17:12:12.039Z,59.22
2023-05-05T17:14:16.610Z,59.28
2023-05-05T17:16:27.921Z,59.14
2023-05-05T17:18:32.527Z,59.11
2023-05-05T17:20:36.452Z,59.52
2023-05-05T17:22:42.040Z,59.42
2023-05-05T17:24:48.528Z,59.68
2023-05-05T17:26:51.847Z,59.71
2023-05-05T17:28:58.393Z,59.66
2023-05-05T17:31:04.991Z,59.63
2023-05-05T17:33:11.562Z,59.85
2023-05-05T17:35:17.374Z,59.68
2023-05-05T17:37:22.706Z,59.82
2023-05-05T17:39:26.506Z,59.84
2023-05-05T17:41:30.116Z,59.83
2023-05-05T17:43:35.468Z,59.79
2023-05-05T17:45:43.193Z,59.97
2023-05-05T17:47:48.602Z,60.10
2023-05-05T17:50:01.833Z,60.37
2023-05-05T17:52:07.476Z,60.28
2023-05-05T17:54:11.282Z,60.06
2023-05-05T17:56:21.107Z,60.21
2023-05-05T17:58:26.251Z,60.21
2023-05-05T18:00:32.098Z,60.58
2023-05-05T18:02:39.550Z,60.63
2023-05-05T18:04:43.662Z,60.85
2023-05-05T18:06:47.363Z,60.96
2023-05-05T18:08:55.963Z,61.21
2023-05-05T18:11:01.844Z,61.20
2023-05-05T18:13:05.127Z,61.23
2023-05-05T18:15:09.801Z,61.64
2023-05-05T18:17:15.233Z,62.41
2023-05-05T18:19:45.311Z,63.11
2023-05-05T18:21:54.527Z,63.33
2023-05-05T18:24:07.624Z,63.63
2023-05-05T18:26:20.960Z,63.70
2023-05-05T18:28:33.315Z,63.84
2023-05-05T18:30:39.853Z,63.71
2023-05-05T18:32:43.951Z,63.93
2023-05-05T18:34:49.182Z,63.92
2023-05-05T18:36:55.474Z,64.22
2023-05-05T18:39:06.933Z,64.48
2023-05-05T18:41:09.929Z,64.67
2023-05-05T18:43:13.162Z,64.78
2023-05-05T18:45:17.286Z,64.26
2023-05-05T18:47:21.417Z,64.24
2023-05-05T18:49:26.506Z,64.37
2023-05-05T18:51:32.291Z,64.44
2023-05-05T18:53:41.528Z,64.88
2023-05-05T18:55:50.561Z,65.12
2023-05-05T18:57:57.047Z,65.20
2023-05-05T19:00:02.683Z,65.17
2023-05-05T19:02:06.595Z,65.22
2023-05-05T19:04:22.639Z,65.76
2023-05-05T19:06:34.346Z,65.68
2023-05-05T19:08:39.154Z,65.70
2023-05-05T19:10:48.224Z,65.57
2023-05-05T19:12:53.173Z,65.42
2023-05-05T19:14:57.193Z,65.84
2023-05-05T19:17:14.656Z,65.33
2023-05-05T19:19:19.498Z,64.94
2023-05-05T19:21:23.264Z,64.89
2023-05-05T19:23:28.213Z,65.11
2023-05-05T19:25:32.991Z,65.55
2023-05-05T19:27:38.026Z,65.84
2023-05-05T19:29:56.498Z,65.63
2023-05-05T19:32:00.275Z,65.73
2023-05-05T19:34:05.178Z,65.95
2023-05-05T19:36:13.130Z,65.92
2023-05-05T19:38:19.604Z,65.91
2023-05-05T19:40:23.429Z,65.90
2023-05-05T19:42:32.641Z,66.13
2023-05-05T19:44:37.741Z,65.70
2023-05-05T19:46:42.960Z,65.78
2023-05-05T19:48:47.228Z,65.91
2023-05-05T19:50:50.929Z,65.91
2023-05-05T19:52:59.792Z,65.88
2023-05-05T19:55:03.105Z,65.89
2023-05-05T19:57:08.792Z,65.90
2023-05-05T19:59:22.013Z,66.15
2023-05-05T20:01:25.381Z,65.98
2023-05-05T20:03:30.017Z,65.90
2023-05-05T20:05:33.985Z,65.94
2023-05-05T20:08:01.153Z,66.22
2023-05-05T20:10:09.553Z,66.32
2023-05-05T20:12:22.189Z,66.33
2023-05-05T20:14:26.807Z,66.40
2023-05-05T20:16:33.726Z,66.39
2023-05-05T20:18:40.425Z,66.36
2023-05-05T20:20:45.807Z,66.59
2023-05-05T20:22:50.786Z,66.37
2023-05-05T20:24:54.792Z,66.41
2023-05-05T20:26:58.810Z,66.23
2023-05-05T20:29:06.534Z,66.29
2023-05-05T20:31:16.067Z,66.29
2023-05-05T20:33:21.901Z,66.20
2023-05-05T20:35:32.729Z,66.34
2023-05-05T20:37:41.816Z,66.54
2023-05-05T20:39:44.769Z,66.49
2023-05-05T20:41:49.896Z,66.66
2023-05-05T20:44:03.827Z,66.72
2023-05-05T20:46:13.106Z,66.70
2023-05-05T20:48:16.259Z,66.81
2023-05-05T20:50:21.447Z,66.65
2023-05-05T20:52:24.155Z,66.77
2023-05-05T20:54:33.980Z,66.76
2023-05-05T20:56:39.393Z,66.83
2023-05-05T20:58:43.518Z,66.79
2023-05-05T21:00:52.401Z,66.89
2023-05-05T21:03:03.244Z,66.87
2023-05-05T21:05:09.719Z,67.12
2023-05-05T21:07:13.418Z,67.11
2023-05-05T21:09:22.248Z,66.97
2023-05-05T21:11:27.839Z,67.16
2023-05-05T21:13:33.436Z,67.12
2023-05-05T21:15:38.066Z,67.14
2023-05-05T21:17:45.067Z,67.38
2023-05-05T21:19:52.392Z,67.39
2023-05-05T21:21:59.586Z,67.66
2023-05-05T21:24:07.748Z,67.54
2023-05-05T21:26:17.022Z,67.68
2023-05-05T21:28:22.327Z,67.79
2023-05-05T21:30:26.056Z,67.84
2023-05-05T21:32:30.666Z,67.96
2023-05-05T21:34:33.869Z,68.01
2023-05-05T21:36:41.243Z,68.20
2023-05-05T21:38:46.785Z,68.16
2023-05-05T21:40:58.257Z,68.26
2023-05-05T21:43:15.907Z,68.28
2023-05-05T21:45:18.909Z,68.13
2023-05-05T21:47:28.868Z,68.20
2023-05-05T21:49:33.400Z,68.11
2023-05-05T21:51:38.453Z,68.35
2023-05-05T21:53:45.221Z,68.19
2023-05-05T21:55:50.478Z,68.31
2023-05-05T21:57:55.904Z,68.38
2023-05-05T22:00:01.103Z,68.34
2023-05-05T22:02:08.373Z,68.44
2023-05-05T22:04:19.466Z,68.51
2023-05-05T22:06:24.752Z,68.53
2023-05-05T22:08:29.667Z,68.50
2023-05-05T22:10:34.914Z,68.60
2023-05-05T22:12:44.043Z,68.49
2023-05-05T22:14:48.728Z,68.41
2023-05-05T22:17:43.445Z,68.52
2023-05-05T22:19:47.372Z,68.49
2023-05-05T22:21:53.899Z,68.45
2023-05-05T22:24:00.350Z,68.50
2023-05-05T22:26:04.963Z,68.54
2023-05-05T22:28:10.341Z,68.67
2023-05-05T22:30:15.318Z,68.66
2023-05-05T22:32:24.551Z,68.60
2023-05-05T22:34:31.460Z,68.46
2023-05-05T22:36:36.912Z,68.61
2023-05-05T22:38:40.402Z,68.76
2023-05-05T22:40:45.089Z,68.64
2023-05-05T22:42:50.155Z,68.65
2023-05-05T22:44:52.944Z,68.73
2023-05-05T22:46:57.562Z,68.85
2023-05-05T22:49:03.013Z,68.62
2023-05-05T22:51:09.061Z,68.79
2023-05-05T22:53:30.889Z,68.85
2023-05-05T22:55:35.125Z,68.76
2023-05-05T22:57:41.074Z,68.72
2023-05-05T22:59:46.374Z,69.01
2023-05-05T23:01:51.456Z,68.96
2023-05-05T23:04:03.718Z,69.17
2023-05-05T23:06:06.727Z,69.39
2023-05-05T23:08:09.985Z,69.47
2023-05-05T23:10:13.078Z,69.25
2023-05-05T23:12:16.991Z,69.11
2023-05-05T23:14:20.384Z,69.33
2023-05-05T23:16:23.663Z,69.24
2023-05-05T23:18:26.432Z,69.20
2023-05-05T23:20:30.327Z,69.20
2023-05-05T23:22:35.141Z,69.15
2023-05-05T23:24:37.747Z,69.42
2023-05-05T23:26:40.707Z,69.26
2023-05-05T23:28:45.103Z,69.44
2023-05-05T23:30:52.821Z,69.36
2023-05-05T23:33:02.246Z,69.44
2023-05-05T23:35:07.554Z,69.35
2023-05-05T23:37:13.966Z,69.28
2023-05-05T23:39:20.910Z,69.29
2023-05-05T23:41:24.672Z,69.44
2023-05-05T23:43:40.516Z,69.32
2023-05-05T23:45:45.180Z,69.56
2023-05-05T23:47:51.137Z,69.72
2023-05-05T23:49:56.824Z,69.79
2023-05-05T23:52:01.493Z,70.01
2023-05-05T23:54:10.065Z,70.08
2023-05-05T23:56:13.156Z,70.14
2023-05-05T23:58:18.208Z,70.37
